Rusk, Wisconsin
Current Conditions -  °F | °C
As of 7:15 AM on Thursday 27 Nov 2014 (Local Time) from KLUM Reporting Station
Scattered Clouds Scattered Clouds  
Wind Chill: -13°   Ceiling: Unl
Heat Index:   Visibility: 10mi
Dew Point: -6°   Wind: 7mph
Humidity: 77%   Direction: 290°WNW
Pressure: 30.45"   Gusts: NA
Location:  44.857°N, 92.0071°W
Report Text: KLUM 271315Z AUTO 29006KT 10SM SCT009 M18/M21 A3045 RMK AO2 T11801212
Loading
Personal Weather Stations






























Interactive Weather Map New forecast layout! Learn more

10-Day Weather Forecast

Advertisements
Track Severe Weather on mobile